sensor_id;sensor_type;location;lat;lon;timestamp;P1;durP1;ratioP1;P2;durP2;ratioP2
70049;SDS011;57391;51.306;22.680;2023-02-24T00:01:57;17.60;;;8.10;;
70049;SDS011;57391;51.306;22.680;2023-02-24T00:04:29;19.20;;;8.70;;
70049;SDS011;57391;51.306;22.680;2023-02-24T00:07:01;16.90;;;8.40;;
70049;SDS011;57391;51.306;22.680;2023-02-24T00:09:29;19.60;;;9.10;;
70049;SDS011;57391;51.306;22.680;2023-02-24T00:11:59;18.20;;;8.50;;
70049;SDS011;57391;51.306;22.680;2023-02-24T00:14:31;16.30;;;8.20;;
70049;SDS011;57391;51.306;22.680;2023-02-24T00:17:01;17.80;;;8.20;;
70049;SDS011;57391;51.306;22.680;2023-02-24T00:19:29;21.30;;;8.90;;
70049;SDS011;57391;51.306;22.680;2023-02-24T00:22:00;15.90;;;7.80;;
70049;SDS011;57391;51.306;22.680;2023-02-24T00:24:29;18.80;;;8.30;;
70049;SDS011;57391;51.306;22.680;2023-02-24T00:26:59;19.00;;;8.30;;
70049;SDS011;57391;51.306;22.680;2023-02-24T00:29:28;18.50;;;8.40;;
70049;SDS011;57391;51.306;22.680;2023-02-24T00:31:57;15.80;;;8.50;;
70049;SDS011;57391;51.306;22.680;2023-02-24T00:34:34;18.80;;;9.10;;
70049;SDS011;57391;51.306;22.680;2023-02-24T00:37:04;16.90;;;8.50;;
70049;SDS011;57391;51.306;22.680;2023-02-24T00:39:37;21.00;;;8.80;;
70049;SDS011;57391;51.306;22.680;2023-02-24T00:42:06;18.40;;;8.30;;
70049;SDS011;57391;51.306;22.680;2023-02-24T00:44:45;21.00;;;8.80;;
70049;SDS011;57391;51.306;22.680;2023-02-24T00:47:15;17.90;;;8.30;;
70049;SDS011;57391;51.306;22.680;2023-02-24T00:49:43;22.40;;;8.40;;
70049;SDS011;57391;51.306;22.680;2023-02-24T00:52:13;17.60;;;8.00;;
70049;SDS011;57391;51.306;22.680;2023-02-24T00:54:45;18.70;;;9.10;;
70049;SDS011;57391;51.306;22.680;2023-02-24T00:57:15;16.60;;;8.80;;
70049;SDS011;57391;51.306;22.680;2023-02-24T00:59:46;19.80;;;8.60;;
70049;SDS011;57391;51.306;22.680;2023-02-24T01:02:14;16.60;;;8.60;;
70049;SDS011;57391;51.306;22.680;2023-02-24T01:04:41;19.80;;;8.30;;
70049;SDS011;57391;51.306;22.680;2023-02-24T01:07:10;20.00;;;9.10;;
70049;SDS011;57391;51.306;22.680;2023-02-24T01:09:39;18.60;;;8.50;;
70049;SDS011;57391;51.306;22.680;2023-02-24T01:12:11;20.90;;;9.50;;
70049;SDS011;57391;51.306;22.680;2023-02-24T01:14:57;20.60;;;8.70;;
70049;SDS011;57391;51.306;22.680;2023-02-24T01:17:25;17.50;;;7.80;;
70049;SDS011;57391;51.306;22.680;2023-02-24T01:19:52;19.40;;;9.10;;
70049;SDS011;57391;51.306;22.680;2023-02-24T01:22:22;19.90;;;8.90;;
70049;SDS011;57391;51.306;22.680;2023-02-24T01:24:49;19.60;;;9.50;;
70049;SDS011;57391;51.306;22.680;2023-02-24T01:27:17;18.70;;;9.20;;
70049;SDS011;57391;51.306;22.680;2023-02-24T01:29:46;19.20;;;9.30;;
70049;SDS011;57391;51.306;22.680;2023-02-24T01:32:18;19.40;;;8.60;;
70049;SDS011;57391;51.306;22.680;2023-02-24T01:34:50;24.70;;;10.60;;
70049;SDS011;57391;51.306;22.680;2023-02-24T01:37:19;22.80;;;9.30;;
70049;SDS011;57391;51.306;22.680;2023-02-24T01:39:46;23.90;;;10.50;;
70049;SDS011;57391;51.306;22.680;2023-02-24T01:42:17;21.80;;;9.70;;
70049;SDS011;57391;51.306;22.680;2023-02-24T01:47:15;21.60;;;10.50;;
70049;SDS011;57391;51.306;22.680;2023-02-24T01:49:49;21.00;;;9.50;;
70049;SDS011;57391;51.306;22.680;2023-02-24T01:52:22;20.90;;;9.90;;
70049;SDS011;57391;51.306;22.680;2023-02-24T01:54:56;19.50;;;9.70;;
70049;SDS011;57391;51.306;22.680;2023-02-24T01:57:41;22.80;;;9.60;;
70049;SDS011;57391;51.306;22.680;2023-02-24T02:00:11;22.50;;;9.20;;
70049;SDS011;57391;51.306;22.680;2023-02-24T02:03:06;20.40;;;9.70;;
70049;SDS011;57391;51.306;22.680;2023-02-24T02:05:39;24.80;;;10.50;;
70049;SDS011;57391;51.306;22.680;2023-02-24T02:08:09;25.60;;;10.30;;
70049;SDS011;57391;51.306;22.680;2023-02-24T02:10:39;20.90;;;9.20;;
70049;SDS011;57391;51.306;22.680;2023-02-24T02:13:12;22.10;;;9.90;;
70049;SDS011;57391;51.306;22.680;2023-02-24T02:16:02;20.90;;;9.70;;
70049;SDS011;57391;51.306;22.680;2023-02-24T02:22:03;21.20;;;10.70;;
70049;SDS011;57391;51.306;22.680;2023-02-24T02:27:32;19.80;;;8.90;;
70049;SDS011;57391;51.306;22.680;2023-02-24T02:38:52;21.00;;;10.10;;
70049;SDS011;57391;51.306;22.680;2023-02-24T02:41:29;21.50;;;9.50;;
70049;SDS011;57391;51.306;22.680;2023-02-24T02:44:08;21.20;;;10.50;;
70049;SDS011;57391;51.306;22.680;2023-02-24T02:46:57;25.60;;;11.60;;
70049;SDS011;57391;51.306;22.680;2023-02-24T02:49:32;22.70;;;10.20;;
70049;SDS011;57391;51.306;22.680;2023-02-24T02:52:08;20.20;;;10.50;;
70049;SDS011;57391;51.306;22.680;2023-02-24T02:54:51;21.90;;;10.50;;
70049;SDS011;57391;51.306;22.680;2023-02-24T02:57:31;24.60;;;10.80;;
70049;SDS011;57391;51.306;22.680;2023-02-24T03:00:25;20.20;;;9.20;;
70049;SDS011;57391;51.306;22.680;2023-02-24T03:03:11;22.20;;;10.50;;
70049;SDS011;57391;51.306;22.680;2023-02-24T03:05:50;28.70;;;11.40;;
70049;SDS011;57391;51.306;22.680;2023-02-24T03:08:24;27.10;;;10.80;;
70049;SDS011;57391;51.306;22.680;2023-02-24T03:10:59;21.50;;;9.00;;
70049;SDS011;57391;51.306;22.680;2023-02-24T03:13:31;21.20;;;10.80;;
70049;SDS011;57391;51.306;22.680;2023-02-24T03:16:04;24.60;;;9.10;;
70049;SDS011;57391;51.306;22.680;2023-02-24T03:18:36;21.20;;;9.90;;
70049;SDS011;57391;51.306;22.680;2023-02-24T03:21:15;19.50;;;9.00;;
70049;SDS011;57391;51.306;22.680;2023-02-24T03:23:52;27.30;;;11.50;;
70049;SDS011;57391;51.306;22.680;2023-02-24T03:26:39;26.80;;;11.80;;
70049;SDS011;57391;51.306;22.680;2023-02-24T03:32:12;23.20;;;10.90;;
70049;SDS011;57391;51.306;22.680;2023-02-24T03:35:37;21.10;;;9.80;;
70049;SDS011;57391;51.306;22.680;2023-02-24T03:37:48;22.80;;;10.70;;
70049;SDS011;57391;51.306;22.680;2023-02-24T03:40:17;24.20;;;10.50;;
70049;SDS011;57391;51.306;22.680;2023-02-24T03:42:49;19.90;;;9.30;;
70049;SDS011;57391;51.306;22.680;2023-02-24T03:45:23;24.30;;;11.50;;
70049;SDS011;57391;51.306;22.680;2023-02-24T03:47:50;19.00;;;10.00;;
70049;SDS011;57391;51.306;22.680;2023-02-24T03:50:20;23.70;;;10.40;;
70049;SDS011;57391;51.306;22.680;2023-02-24T03:53:30;21.60;;;9.80;;
70049;SDS011;57391;51.306;22.680;2023-02-24T04:08:03;20.00;;;10.30;;
70049;SDS011;57391;51.306;22.680;2023-02-24T04:10:43;22.10;;;11.30;;
70049;SDS011;57391;51.306;22.680;2023-02-24T04:13:36;21.00;;;9.00;;
70049;SDS011;57391;51.306;22.680;2023-02-24T04:16:26;19.40;;;8.90;;
70049;SDS011;57391;51.306;22.680;2023-02-24T04:19:10;19.20;;;9.10;;
70049;SDS011;57391;51.306;22.680;2023-02-24T04:21:43;19.80;;;8.60;;
70049;SDS011;57391;51.306;22.680;2023-02-24T04:24:21;22.10;;;10.20;;
70049;SDS011;57391;51.306;22.680;2023-02-24T04:26:55;21.70;;;9.80;;
70049;SDS011;57391;51.306;22.680;2023-02-24T04:29:29;20.10;;;9.60;;
70049;SDS011;57391;51.306;22.680;2023-02-24T04:32:06;20.20;;;9.40;;
70049;SDS011;57391;51.306;22.680;2023-02-24T04:34:38;21.80;;;9.30;;
70049;SDS011;57391;51.306;22.680;2023-02-24T04:37:06;21.70;;;9.70;;
70049;SDS011;57391;51.306;22.680;2023-02-24T04:39:34;19.50;;;9.50;;
70049;SDS011;57391;51.306;22.680;2023-02-24T04:42:07;20.40;;;9.70;;
70049;SDS011;57391;51.306;22.680;2023-02-24T04:44:35;20.80;;;9.80;;
70049;SDS011;57391;51.306;22.680;2023-02-24T04:47:02;18.10;;;8.90;;
70049;SDS011;57391;51.306;22.680;2023-02-24T04:49:29;20.90;;;9.30;;
70049;SDS011;57391;51.306;22.680;2023-02-24T04:51:56;19.20;;;9.50;;
70049;SDS011;57391;51.306;22.680;2023-02-24T04:54:23;22.30;;;10.60;;
70049;SDS011;57391;51.306;22.680;2023-02-24T04:56:51;22.30;;;9.60;;
70049;SDS011;57391;51.306;22.680;2023-02-24T04:59:20;18.10;;;8.40;;
70049;SDS011;57391;51.306;22.680;2023-02-24T05:01:48;18.00;;;8.50;;
70049;SDS011;57391;51.306;22.680;2023-02-24T05:04:19;20.30;;;10.10;;
70049;SDS011;57391;51.306;22.680;2023-02-24T05:06:46;22.00;;;9.30;;
70049;SDS011;57391;51.306;22.680;2023-02-24T05:09:15;22.00;;;9.10;;
70049;SDS011;57391;51.306;22.680;2023-02-24T05:11:47;22.40;;;10.40;;
70049;SDS011;57391;51.306;22.680;2023-02-24T05:14:17;21.40;;;10.60;;
70049;SDS011;57391;51.306;22.680;2023-02-24T05:16:47;23.40;;;10.00;;
70049;SDS011;57391;51.306;22.680;2023-02-24T05:19:17;21.50;;;10.60;;
70049;SDS011;57391;51.306;22.680;2023-02-24T05:22:05;21.30;;;9.10;;
70049;SDS011;57391;51.306;22.680;2023-02-24T05:24:37;18.60;;;8.80;;
70049;SDS011;57391;51.306;22.680;2023-02-24T05:27:04;19.10;;;9.00;;
70049;SDS011;57391;51.306;22.680;2023-02-24T05:29:33;17.80;;;8.70;;
70049;SDS011;57391;51.306;22.680;2023-02-24T05:32:02;20.70;;;10.30;;
70049;SDS011;57391;51.306;22.680;2023-02-24T05:34:32;21.50;;;9.40;;
70049;SDS011;57391;51.306;22.680;2023-02-24T05:37:00;19.70;;;9.00;;
70049;SDS011;57391;51.306;22.680;2023-02-24T05:39:36;18.10;;;8.80;;
70049;SDS011;57391;51.306;22.680;2023-02-24T05:42:03;17.50;;;8.20;;
70049;SDS011;57391;51.306;22.680;2023-02-24T05:44:33;19.80;;;7.70;;
70049;SDS011;57391;51.306;22.680;2023-02-24T05:47:01;20.40;;;8.50;;
70049;SDS011;57391;51.306;22.680;2023-02-24T05:49:32;18.70;;;8.70;;
70049;SDS011;57391;51.306;22.680;2023-02-24T05:52:04;16.30;;;7.80;;
70049;SDS011;57391;51.306;22.680;2023-02-24T05:54:38;16.30;;;8.10;;
70049;SDS011;57391;51.306;22.680;2023-02-24T05:57:12;17.30;;;7.30;;
70049;SDS011;57391;51.306;22.680;2023-02-24T05:59:42;17.60;;;8.70;;
70049;SDS011;57391;51.306;22.680;2023-02-24T06:02:12;17.80;;;8.10;;
70049;SDS011;57391;51.306;22.680;2023-02-24T06:04:44;19.40;;;8.80;;
70049;SDS011;57391;51.306;22.680;2023-02-24T06:07:24;16.10;;;8.30;;
70049;SDS011;57391;51.306;22.680;2023-02-24T06:09:55;19.80;;;8.60;;
70049;SDS011;57391;51.306;22.680;2023-02-24T06:12:29;20.30;;;9.00;;
70049;SDS011;57391;51.306;22.680;2023-02-24T06:14:57;37.60;;;9.30;;
70049;SDS011;57391;51.306;22.680;2023-02-24T06:17:24;20.80;;;9.10;;
70049;SDS011;57391;51.306;22.680;2023-02-24T06:19:53;25.50;;;9.20;;
70049;SDS011;57391;51.306;22.680;2023-02-24T06:22:22;25.60;;;10.40;;
70049;SDS011;57391;51.306;22.680;2023-02-24T06:24:52;17.10;;;8.70;;
70049;SDS011;57391;51.306;22.680;2023-02-24T06:27:21;19.10;;;8.90;;
70049;SDS011;57391;51.306;22.680;2023-02-24T06:29:51;17.40;;;8.00;;
70049;SDS011;57391;51.306;22.680;2023-02-24T06:32:22;18.00;;;8.80;;
70049;SDS011;57391;51.306;22.680;2023-02-24T06:34:51;18.80;;;9.70;;
70049;SDS011;57391;51.306;22.680;2023-02-24T06:37:19;17.00;;;7.60;;
70049;SDS011;57391;51.306;22.680;2023-02-24T06:39:48;17.50;;;8.20;;
70049;SDS011;57391;51.306;22.680;2023-02-24T06:42:15;17.50;;;7.30;;
70049;SDS011;57391;51.306;22.680;2023-02-24T06:44:43;16.70;;;7.70;;
70049;SDS011;57391;51.306;22.680;2023-02-24T06:47:11;17.70;;;8.10;;
70049;SDS011;57391;51.306;22.680;2023-02-24T06:49:40;18.10;;;8.30;;
70049;SDS011;57391;51.306;22.680;2023-02-24T06:52:10;16.00;;;8.20;;
70049;SDS011;57391;51.306;22.680;2023-02-24T06:54:45;17.50;;;7.50;;
70049;SDS011;57391;51.306;22.680;2023-02-24T06:57:13;18.90;;;9.10;;
70049;SDS011;57391;51.306;22.680;2023-02-24T06:59:40;16.90;;;8.10;;
70049;SDS011;57391;51.306;22.680;2023-02-24T07:02:08;19.60;;;8.60;;
70049;SDS011;57391;51.306;22.680;2023-02-24T07:04:37;16.40;;;7.80;;
70049;SDS011;57391;51.306;22.680;2023-02-24T07:07:10;21.20;;;8.50;;
70049;SDS011;57391;51.306;22.680;2023-02-24T07:09:40;18.40;;;8.50;;
70049;SDS011;57391;51.306;22.680;2023-02-24T07:12:08;16.30;;;7.60;;
70049;SDS011;57391;51.306;22.680;2023-02-24T07:14:37;15.30;;;7.70;;
70049;SDS011;57391;51.306;22.680;2023-02-24T07:17:04;17.70;;;8.60;;
70049;SDS011;57391;51.306;22.680;2023-02-24T07:19:32;17.50;;;7.70;;
70049;SDS011;57391;51.306;22.680;2023-02-24T07:22:01;16.20;;;7.80;;
70049;SDS011;57391;51.306;22.680;2023-02-24T07:24:33;18.20;;;8.40;;
70049;SDS011;57391;51.306;22.680;2023-02-24T07:27:07;21.50;;;7.80;;
70049;SDS011;57391;51.306;22.680;2023-02-24T07:29:38;16.40;;;8.20;;
70049;SDS011;57391;51.306;22.680;2023-02-24T07:32:07;18.60;;;8.20;;
70049;SDS011;57391;51.306;22.680;2023-02-24T07:34:35;20.60;;;8.50;;
70049;SDS011;57391;51.306;22.680;2023-02-24T07:37:05;19.80;;;7.80;;
70049;SDS011;57391;51.306;22.680;2023-02-24T07:39:34;17.80;;;7.70;;
70049;SDS011;57391;51.306;22.680;2023-02-24T07:42:03;15.50;;;7.60;;
70049;SDS011;57391;51.306;22.680;2023-02-24T07:44:42;18.10;;;7.50;;
70049;SDS011;57391;51.306;22.680;2023-02-24T07:47:11;17.40;;;8.10;;
70049;SDS011;57391;51.306;22.680;2023-02-24T07:49:39;16.50;;;7.70;;
70049;SDS011;57391;51.306;22.680;2023-02-24T07:52:06;16.30;;;8.10;;
70049;SDS011;57391;51.306;22.680;2023-02-24T07:54:35;17.90;;;8.00;;
70049;SDS011;57391;51.306;22.680;2023-02-24T07:57:05;18.70;;;8.80;;
70049;SDS011;57391;51.306;22.680;2023-02-24T07:59:38;16.40;;;7.60;;
70049;SDS011;57391;51.306;22.680;2023-02-24T08:02:08;22.00;;;9.70;;
70049;SDS011;57391;51.306;22.680;2023-02-24T08:04:36;15.60;;;8.10;;
70049;SDS011;57391;51.306;22.680;2023-02-24T08:07:06;19.30;;;8.80;;
70049;SDS011;57391;51.306;22.680;2023-02-24T08:09:40;18.30;;;8.70;;
70049;SDS011;57391;51.306;22.680;2023-02-24T08:12:19;17.40;;;8.40;;
70049;SDS011;57391;51.306;22.680;2023-02-24T08:14:52;16.00;;;8.30;;
70049;SDS011;57391;51.306;22.680;2023-02-24T08:17:23;17.30;;;8.80;;
70049;SDS011;57391;51.306;22.680;2023-02-24T08:19:54;19.30;;;8.50;;
70049;SDS011;57391;51.306;22.680;2023-02-24T08:22:41;20.20;;;9.90;;
70049;SDS011;57391;51.306;22.680;2023-02-24T08:25:12;18.50;;;8.70;;
70049;SDS011;57391;51.306;22.680;2023-02-24T08:27:46;16.10;;;7.40;;
70049;SDS011;57391;51.306;22.680;2023-02-24T08:30:25;19.00;;;8.40;;
70049;SDS011;57391;51.306;22.680;2023-02-24T08:32:56;19.90;;;9.40;;
70049;SDS011;57391;51.306;22.680;2023-02-24T08:35:28;16.20;;;8.70;;
70049;SDS011;57391;51.306;22.680;2023-02-24T08:38:03;17.70;;;8.60;;
70049;SDS011;57391;51.306;22.680;2023-02-24T08:40:37;20.80;;;9.60;;
70049;SDS011;57391;51.306;22.680;2023-02-24T08:43:27;19.50;;;8.30;;
70049;SDS011;57391;51.306;22.680;2023-02-24T08:48:41;19.50;;;9.10;;
70049;SDS011;57391;51.306;22.680;2023-02-24T08:51:25;18.20;;;9.50;;
70049;SDS011;57391;51.306;22.680;2023-02-24T08:54:00;19.70;;;7.90;;
70049;SDS011;57391;51.306;22.680;2023-02-24T08:56:36;18.30;;;9.00;;
70049;SDS011;57391;51.306;22.680;2023-02-24T08:59:12;20.90;;;8.70;;
70049;SDS011;57391;51.306;22.680;2023-02-24T09:04:45;20.10;;;9.40;;
70049;SDS011;57391;51.306;22.680;2023-02-24T09:07:30;20.30;;;8.80;;
70049;SDS011;57391;51.306;22.680;2023-02-24T09:10:11;19.40;;;9.40;;
70049;SDS011;57391;51.306;22.680;2023-02-24T09:12:43;19.00;;;8.70;;
70049;SDS011;57391;51.306;22.680;2023-02-24T09:15:11;18.00;;;8.60;;
70049;SDS011;57391;51.306;22.680;2023-02-24T09:17:42;22.70;;;9.70;;
70049;SDS011;57391;51.306;22.680;2023-02-24T09:20:21;19.10;;;8.80;;
70049;SDS011;57391;51.306;22.680;2023-02-24T09:23:11;23.30;;;10.10;;
70049;SDS011;57391;51.306;22.680;2023-02-24T09:25:46;19.80;;;8.40;;
70049;SDS011;57391;51.306;22.680;2023-02-24T09:28:21;18.20;;;8.70;;
70049;SDS011;57391;51.306;22.680;2023-02-24T09:30:53;20.50;;;9.50;;
70049;SDS011;57391;51.306;22.680;2023-02-24T09:36:02;18.80;;;8.80;;
70049;SDS011;57391;51.306;22.680;2023-02-24T09:38:58;17.90;;;8.10;;
70049;SDS011;57391;51.306;22.680;2023-02-24T09:44:43;19.80;;;9.30;;
70049;SDS011;57391;51.306;22.680;2023-02-24T09:50:25;18.60;;;9.30;;
70049;SDS011;57391;51.306;22.680;2023-02-24T09:53:35;22.40;;;10.30;;
70049;SDS011;57391;51.306;22.680;2023-02-24T09:56:20;22.20;;;10.40;;
70049;SDS011;57391;51.306;22.680;2023-02-24T09:59:05;18.90;;;9.30;;
70049;SDS011;57391;51.306;22.680;2023-02-24T10:02:23;18.00;;;9.70;;
70049;SDS011;57391;51.306;22.680;2023-02-24T10:05:20;17.10;;;8.50;;
70049;SDS011;57391;51.306;22.680;2023-02-24T10:08:18;21.30;;;9.80;;
70049;SDS011;57391;51.306;22.680;2023-02-24T10:10:52;17.20;;;8.10;;
70049;SDS011;57391;51.306;22.680;2023-02-24T10:13:50;21.00;;;9.00;;
70049;SDS011;57391;51.306;22.680;2023-02-24T10:16:24;20.00;;;9.90;;
70049;SDS011;57391;51.306;22.680;2023-02-24T10:19:10;19.00;;;9.10;;
70049;SDS011;57391;51.306;22.680;2023-02-24T10:21:57;19.30;;;9.60;;
70049;SDS011;57391;51.306;22.680;2023-02-24T10:24:44;21.70;;;11.20;;
70049;SDS011;57391;51.306;22.680;2023-02-24T10:27:32;22.40;;;9.70;;
70049;SDS011;57391;51.306;22.680;2023-02-24T10:30:55;18.60;;;9.50;;
70049;SDS011;57391;51.306;22.680;2023-02-24T10:34:02;19.90;;;9.50;;
70049;SDS011;57391;51.306;22.680;2023-02-24T10:36:34;18.10;;;8.60;;
70049;SDS011;57391;51.306;22.680;2023-02-24T10:41:51;19.20;;;10.20;;
70049;SDS011;57391;51.306;22.680;2023-02-24T10:44:26;21.60;;;11.00;;
70049;SDS011;57391;51.306;22.680;2023-02-24T10:47:08;20.00;;;10.50;;
70049;SDS011;57391;51.306;22.680;2023-02-24T10:49:58;21.90;;;11.00;;
70049;SDS011;57391;51.306;22.680;2023-02-24T10:52:36;20.60;;;10.50;;
70049;SDS011;57391;51.306;22.680;2023-02-24T10:55:24;20.20;;;11.10;;
70049;SDS011;57391;51.306;22.680;2023-02-24T10:58:02;21.10;;;11.10;;
70049;SDS011;57391;51.306;22.680;2023-02-24T11:00:41;18.40;;;8.90;;
70049;SDS011;57391;51.306;22.680;2023-02-24T11:03:29;18.40;;;9.60;;
70049;SDS011;57391;51.306;22.680;2023-02-24T11:06:19;18.90;;;9.60;;
70049;SDS011;57391;51.306;22.680;2023-02-24T11:11:56;18.30;;;9.00;;
70049;SDS011;57391;51.306;22.680;2023-02-24T11:14:50;18.30;;;9.30;;
70049;SDS011;57391;51.306;22.680;2023-02-24T11:22:55;20.90;;;11.10;;
70049;SDS011;57391;51.306;22.680;2023-02-24T11:25:42;20.50;;;10.40;;
70049;SDS011;57391;51.306;22.680;2023-02-24T11:36:54;19.80;;;9.50;;
70049;SDS011;57391;51.306;22.680;2023-02-24T11:39:48;16.30;;;8.50;;
70049;SDS011;57391;51.306;22.680;2023-02-24T11:45:34;16.70;;;7.50;;
70049;SDS011;57391;51.306;22.680;2023-02-24T11:51:11;14.90;;;8.70;;
70049;SDS011;57391;51.306;22.680;2023-02-24T11:54:04;16.90;;;10.00;;
70049;SDS011;57391;51.306;22.680;2023-02-24T11:56:39;18.30;;;9.20;;
70049;SDS011;57391;51.306;22.680;2023-02-24T12:05:12;18.00;;;9.80;;
70049;SDS011;57391;51.306;22.680;2023-02-24T12:07:50;18.10;;;9.20;;
70049;SDS011;57391;51.306;22.680;2023-02-24T12:10:26;15.70;;;8.70;;
70049;SDS011;57391;51.306;22.680;2023-02-24T12:13:06;18.00;;;9.50;;
70049;SDS011;57391;51.306;22.680;2023-02-24T12:15:54;16.90;;;9.40;;
70049;SDS011;57391;51.306;22.680;2023-02-24T12:18:59;17.40;;;9.90;;
70049;SDS011;57391;51.306;22.680;2023-02-24T12:21:36;18.60;;;9.10;;
70049;SDS011;57391;51.306;22.680;2023-02-24T12:24:09;17.30;;;9.90;;
70049;SDS011;57391;51.306;22.680;2023-02-24T12:50:34;18.50;;;10.40;;
70049;SDS011;57391;51.306;22.680;2023-02-24T12:56:18;20.90;;;11.00;;
70049;SDS011;57391;51.306;22.680;2023-02-24T12:58:55;17.80;;;10.30;;
70049;SDS011;57391;51.306;22.680;2023-02-24T13:10:23;22.60;;;10.70;;
70049;SDS011;57391;51.306;22.680;2023-02-24T13:15:31;19.40;;;10.40;;
70049;SDS011;57391;51.306;22.680;2023-02-24T13:17:58;21.10;;;10.90;;
70049;SDS011;57391;51.306;22.680;2023-02-24T13:20:31;18.80;;;9.50;;
70049;SDS011;57391;51.306;22.680;2023-02-24T13:23:00;20.20;;;11.00;;
70049;SDS011;57391;51.306;22.680;2023-02-24T13:25:35;18.10;;;9.80;;
70049;SDS011;57391;51.306;22.680;2023-02-24T13:28:05;22.10;;;11.50;;
70049;SDS011;57391;51.306;22.680;2023-02-24T13:31:08;17.80;;;10.20;;
70049;SDS011;57391;51.306;22.680;2023-02-24T13:33:40;19.30;;;11.20;;
70049;SDS011;57391;51.306;22.680;2023-02-24T13:36:17;22.10;;;11.40;;
70049;SDS011;57391;51.306;22.680;2023-02-24T13:39:04;20.70;;;11.00;;
70049;SDS011;57391;51.306;22.680;2023-02-24T13:41:38;22.20;;;11.40;;
70049;SDS011;57391;51.306;22.680;2023-02-24T13:50:16;21.60;;;11.70;;
70049;SDS011;57391;51.306;22.680;2023-02-24T13:53:55;23.20;;;11.60;;
70049;SDS011;57391;51.306;22.680;2023-02-24T13:59:34;18.20;;;10.40;;
70049;SDS011;57391;51.306;22.680;2023-02-24T14:02:26;21.60;;;12.40;;
70049;SDS011;57391;51.306;22.680;2023-02-24T14:04:58;22.90;;;11.50;;
70049;SDS011;57391;51.306;22.680;2023-02-24T14:07:38;22.50;;;11.90;;
70049;SDS011;57391;51.306;22.680;2023-02-24T14:10:18;24.20;;;12.50;;
70049;SDS011;57391;51.306;22.680;2023-02-24T14:15:46;22.20;;;12.80;;
70049;SDS011;57391;51.306;22.680;2023-02-24T14:18:22;22.60;;;12.30;;
70049;SDS011;57391;51.306;22.680;2023-02-24T14:20:53;25.30;;;13.40;;
70049;SDS011;57391;51.306;22.680;2023-02-24T14:23:28;23.90;;;12.80;;
70049;SDS011;57391;51.306;22.680;2023-02-24T14:26:04;25.30;;;12.50;;
70049;SDS011;57391;51.306;22.680;2023-02-24T14:28:35;22.00;;;12.70;;
70049;SDS011;57391;51.306;22.680;2023-02-24T14:31:11;22.30;;;12.00;;
70049;SDS011;57391;51.306;22.680;2023-02-24T14:33:42;22.60;;;12.50;;
70049;SDS011;57391;51.306;22.680;2023-02-24T14:36:16;22.70;;;12.50;;
70049;SDS011;57391;51.306;22.680;2023-02-24T14:39:08;29.20;;;15.20;;
70049;SDS011;57391;51.306;22.680;2023-02-24T14:41:42;25.60;;;13.70;;
70049;SDS011;57391;51.306;22.680;2023-02-24T14:44:22;28.00;;;14.00;;
70049;SDS011;57391;51.306;22.680;2023-02-24T14:46:57;25.50;;;13.00;;
70049;SDS011;57391;51.306;22.680;2023-02-24T14:49:33;29.00;;;15.10;;
70049;SDS011;57391;51.306;22.680;2023-02-24T14:52:13;26.10;;;15.00;;
70049;SDS011;57391;51.306;22.680;2023-02-24T14:54:51;24.30;;;13.60;;
70049;SDS011;57391;51.306;22.680;2023-02-24T14:57:25;24.50;;;13.20;;
70049;SDS011;57391;51.306;22.680;2023-02-24T15:00:01;28.20;;;15.00;;
70049;SDS011;57391;51.306;22.680;2023-02-24T15:02:45;29.60;;;14.70;;
70049;SDS011;57391;51.306;22.680;2023-02-24T15:05:17;27.70;;;14.40;;
70049;SDS011;57391;51.306;22.680;2023-02-24T15:07:44;29.30;;;14.60;;
70049;SDS011;57391;51.306;22.680;2023-02-24T15:10:19;23.90;;;13.60;;
70049;SDS011;57391;51.306;22.680;2023-02-24T15:13:14;27.20;;;14.30;;
70049;SDS011;57391;51.306;22.680;2023-02-24T15:15:46;27.40;;;14.00;;
70049;SDS011;57391;51.306;22.680;2023-02-24T15:18:26;25.90;;;12.20;;
70049;SDS011;57391;51.306;22.680;2023-02-24T15:21:06;23.00;;;12.00;;
70049;SDS011;57391;51.306;22.680;2023-02-24T15:23:35;23.90;;;12.90;;
70049;SDS011;57391;51.306;22.680;2023-02-24T15:26:06;29.00;;;14.80;;
70049;SDS011;57391;51.306;22.680;2023-02-24T15:28:37;27.60;;;15.50;;
70049;SDS011;57391;51.306;22.680;2023-02-24T15:33:36;28.80;;;14.50;;
70049;SDS011;57391;51.306;22.680;2023-02-24T15:36:10;29.20;;;15.30;;
70049;SDS011;57391;51.306;22.680;2023-02-24T15:38:42;28.10;;;15.50;;
70049;SDS011;57391;51.306;22.680;2023-02-24T15:41:12;30.50;;;15.90;;
70049;SDS011;57391;51.306;22.680;2023-02-24T15:46:28;32.70;;;16.30;;
70049;SDS011;57391;51.306;22.680;2023-02-24T15:49:00;31.40;;;16.50;;
70049;SDS011;57391;51.306;22.680;2023-02-24T15:51:40;29.60;;;15.60;;
70049;SDS011;57391;51.306;22.680;2023-02-24T15:54:16;33.00;;;16.20;;
70049;SDS011;57391;51.306;22.680;2023-02-24T15:56:47;35.70;;;17.50;;
70049;SDS011;57391;51.306;22.680;2023-02-24T15:59:18;34.80;;;17.70;;
70049;SDS011;57391;51.306;22.680;2023-02-24T16:01:48;32.80;;;18.50;;
70049;SDS011;57391;51.306;22.680;2023-02-24T16:04:17;39.50;;;19.10;;
70049;SDS011;57391;51.306;22.680;2023-02-24T16:06:47;39.60;;;19.60;;
70049;SDS011;57391;51.306;22.680;2023-02-24T16:09:34;36.70;;;20.20;;
70049;SDS011;57391;51.306;22.680;2023-02-24T16:12:14;37.50;;;19.40;;
70049;SDS011;57391;51.306;22.680;2023-02-24T16:14:47;41.10;;;20.90;;
70049;SDS011;57391;51.306;22.680;2023-02-24T16:17:36;42.30;;;21.10;;
70049;SDS011;57391;51.306;22.680;2023-02-24T16:20:17;38.70;;;19.80;;
70049;SDS011;57391;51.306;22.680;2023-02-24T16:22:54;42.80;;;20.40;;
70049;SDS011;57391;51.306;22.680;2023-02-24T16:25:23;41.90;;;21.20;;
70049;SDS011;57391;51.306;22.680;2023-02-24T16:27:52;46.60;;;22.10;;
70049;SDS011;57391;51.306;22.680;2023-02-24T16:30:26;48.80;;;23.50;;
70049;SDS011;57391;51.306;22.680;2023-02-24T16:32:57;37.10;;;19.20;;
70049;SDS011;57391;51.306;22.680;2023-02-24T16:35:27;42.40;;;20.70;;
70049;SDS011;57391;51.306;22.680;2023-02-24T16:37:54;47.50;;;23.00;;
70049;SDS011;57391;51.306;22.680;2023-02-24T16:40:27;48.30;;;24.10;;
70049;SDS011;57391;51.306;22.680;2023-02-24T16:42:56;47.80;;;24.30;;
70049;SDS011;57391;51.306;22.680;2023-02-24T16:45:27;49.70;;;22.70;;
70049;SDS011;57391;51.306;22.680;2023-02-24T16:47:57;49.80;;;23.50;;
70049;SDS011;57391;51.306;22.680;2023-02-24T16:50:35;48.60;;;22.90;;
70049;SDS011;57391;51.306;22.680;2023-02-24T16:53:09;49.10;;;24.80;;
70049;SDS011;57391;51.306;22.680;2023-02-24T16:55:40;44.90;;;22.80;;
70049;SDS011;57391;51.306;22.680;2023-02-24T16:58:09;40.30;;;19.80;;
70049;SDS011;57391;51.306;22.680;2023-02-24T17:00:38;39.80;;;19.40;;
70049;SDS011;57391;51.306;22.680;2023-02-24T17:03:25;40.30;;;20.80;;
70049;SDS011;57391;51.306;22.680;2023-02-24T17:05:59;35.80;;;18.60;;
70049;SDS011;57391;51.306;22.680;2023-02-24T17:08:26;41.90;;;21.40;;
70049;SDS011;57391;51.306;22.680;2023-02-24T17:10:54;32.60;;;17.60;;
70049;SDS011;57391;51.306;22.680;2023-02-24T17:13:21;38.70;;;20.00;;
70049;SDS011;57391;51.306;22.680;2023-02-24T17:15:49;35.90;;;18.80;;
70049;SDS011;57391;51.306;22.680;2023-02-24T17:18:23;35.50;;;18.00;;